Terminal Aerodrome Forecast
Issued by NWS

Home | Current Version | Previous Version | Graphics & Text | Print | Product List | Glossary On
Versions: 1 2 3 4 5 6 7 8 9 10 11 12 13 14 15 16 17 18 19 20 21
000
FTUS43 KICT 171728
TAFHUT
TAF
KHUT 171728Z 1718/1818 19013KT P6SM SKC
     FM180000 18007KT P6SM SCT200
     FM181200 17006KT P6SM SCT010 BKN200
      TEMPO 1813/1816 5SM BR BKN010=

USA.gov is the U.S. government's official web portal to all federal, state and local government web resources and services.